createdAt,value
2022-12-31T00:02:06.572Z,92.30
2022-12-31T00:04:37.826Z,92.30
2022-12-31T00:07:28.458Z,92.30
2022-12-31T00:09:59.503Z,92.30
2022-12-31T00:12:30.450Z,92.40
2022-12-31T00:17:46.142Z,92.30
2022-12-31T00:20:17.954Z,92.30
2022-12-31T00:22:48.932Z,92.30
2022-12-31T00:25:19.850Z,92.30
2022-12-31T00:27:51.270Z,92.30
2022-12-31T00:30:23.744Z,92.30
2022-12-31T00:32:54.767Z,92.30
2022-12-31T00:35:25.773Z,92.30
2022-12-31T00:37:56.897Z,92.30
2022-12-31T00:40:27.819Z,92.20
2022-12-31T00:42:58.697Z,92.40
2022-12-31T00:45:29.543Z,92.30
2022-12-31T00:48:00.545Z,92.40
2022-12-31T00:50:32.608Z,92.30
2022-12-31T00:53:23.610Z,92.30
2022-12-31T00:55:54.680Z,92.30
2022-12-31T00:58:25.647Z,92.40
2022-12-31T01:00:56.877Z,92.30
2022-12-31T01:03:28.626Z,92.30
2022-12-31T01:06:02.925Z,92.30
2022-12-31T01:08:34.072Z,92.20
2022-12-31T01:11:20.818Z,92.30
2022-12-31T01:14:04.441Z,92.30
2022-12-31T01:16:51.759Z,92.30
2022-12-31T01:19:29.430Z,92.20
2022-12-31T01:22:05.048Z,92.30
2022-12-31T01:24:37.111Z,92.40
2022-12-31T01:27:08.004Z,92.30
2022-12-31T01:29:38.843Z,92.30
2022-12-31T01:32:09.825Z,92.30
2022-12-31T01:34:40.877Z,92.30
2022-12-31T01:37:12.042Z,92.20
2022-12-31T01:39:42.880Z,92.10
2022-12-31T01:42:14.583Z,92.30
2022-12-31T01:45:11.282Z,92.20
2022-12-31T01:47:50.179Z,92.20
2022-12-31T01:50:32.302Z,92.20
2022-12-31T01:53:06.501Z,92.10
2022-12-31T01:55:47.844Z,92.20
2022-12-31T01:58:25.061Z,92.20
2022-12-31T02:00:58.313Z,92.10
2022-12-31T02:03:30.942Z,92.10
2022-12-31T02:06:23.580Z,92.10
2022-12-31T02:08:54.555Z,92.00
2022-12-31T02:11:29.390Z,92.00
2022-12-31T02:14:03.494Z,92.00
2022-12-31T02:16:42.128Z,92.00
2022-12-31T02:19:49.535Z,92.00
2022-12-31T02:22:56.890Z,92.00
2022-12-31T02:25:56.128Z,92.00
2022-12-31T02:31:50.488Z,91.90
2022-12-31T02:34:34.817Z,91.90
2022-12-31T02:37:30.743Z,91.90
2022-12-31T02:40:23.004Z,91.90
2022-12-31T02:42:55.721Z,92.00
2022-12-31T02:45:41.139Z,92.00
2022-12-31T02:48:38.421Z,92.00
2022-12-31T02:51:31.780Z,91.90
2022-12-31T02:54:18.427Z,91.70
2022-12-31T02:57:15.929Z,92.00
2022-12-31T03:00:27.842Z,92.00
2022-12-31T03:03:03.537Z,91.90
2022-12-31T03:05:40.925Z,91.90
2022-12-31T03:08:13.575Z,92.00
2022-12-31T03:10:46.100Z,92.00
2022-12-31T03:13:38.016Z,91.90
2022-12-31T03:16:10.909Z,91.90
2022-12-31T03:18:59.761Z,91.90
2022-12-31T03:22:08.613Z,91.90
2022-12-31T03:24:57.382Z,91.90
2022-12-31T03:27:28.331Z,91.90
2022-12-31T03:30:00.330Z,91.90
2022-12-31T03:32:31.447Z,91.90
2022-12-31T03:35:02.321Z,91.90
2022-12-31T03:37:33.196Z,91.90
2022-12-31T03:40:27.382Z,92.00
2022-12-31T03:42:58.444Z,91.90
2022-12-31T03:45:29.549Z,91.70
2022-12-31T03:48:00.574Z,91.90
2022-12-31T03:50:34.020Z,91.90
2022-12-31T03:53:07.264Z,91.70
2022-12-31T03:55:39.229Z,91.70
2022-12-31T03:58:10.247Z,91.40
2022-12-31T04:00:41.128Z,91.70
2022-12-31T04:03:12.294Z,91.30
2022-12-31T04:05:43.458Z,91.30
2022-12-31T04:08:14.727Z,91.20
2022-12-31T04:10:51.500Z,91.10
2022-12-31T04:13:22.423Z,91.40
2022-12-31T04:16:16.253Z,91.60
2022-12-31T04:18:49.473Z,91.60
2022-12-31T04:21:20.577Z,91.40
2022-12-31T04:23:51.675Z,91.40
2022-12-31T04:26:24.590Z,91.30
2022-12-31T04:29:19.336Z,91.50
2022-12-31T04:31:50.471Z,91.60
2022-12-31T04:34:26.957Z,91.40
2022-12-31T04:37:21.273Z,91.50
2022-12-31T04:39:52.460Z,91.40
2022-12-31T04:42:24.552Z,91.50
2022-12-31T04:44:55.584Z,91.60
2022-12-31T04:47:27.932Z,91.60
2022-12-31T04:50:01.178Z,91.50
2022-12-31T04:52:34.616Z,91.50
2022-12-31T04:55:10.215Z,91.50
2022-12-31T04:57:42.865Z,91.50
2022-12-31T05:00:15.924Z,91.50
2022-12-31T05:02:47.080Z,91.50
2022-12-31T05:05:20.823Z,91.50
2022-12-31T05:07:52.530Z,91.50
2022-12-31T05:10:23.444Z,91.40
2022-12-31T05:12:54.474Z,91.50
2022-12-31T05:15:26.092Z,91.50
2022-12-31T05:20:42.843Z,91.50
2022-12-31T05:23:17.773Z,91.50
2022-12-31T05:25:53.096Z,91.50
2022-12-31T05:28:24.602Z,91.50
2022-12-31T05:30:55.814Z,91.50
2022-12-31T05:33:28.454Z,91.50
2022-12-31T05:36:01.064Z,91.50
2022-12-31T05:38:32.145Z,91.50
2022-12-31T05:41:08.152Z,91.50
2022-12-31T05:44:00.403Z,91.50
2022-12-31T05:46:34.597Z,91.50
2022-12-31T05:49:06.607Z,91.50
2022-12-31T05:51:39.100Z,91.50
2022-12-31T05:54:11.881Z,91.50
2022-12-31T05:56:45.443Z,91.60
2022-12-31T05:59:19.948Z,91.50
2022-12-31T06:01:51.590Z,91.50
2022-12-31T06:04:44.125Z,91.40
2022-12-31T06:07:16.120Z,91.40
2022-12-31T06:09:47.166Z,91.50
2022-12-31T06:12:20.330Z,91.50
2022-12-31T06:14:52.371Z,91.50
2022-12-31T06:17:24.430Z,91.50
2022-12-31T06:19:55.340Z,91.50
2022-12-31T06:22:26.152Z,91.50
2022-12-31T06:24:57.751Z,91.50
2022-12-31T06:27:29.891Z,91.40
2022-12-31T06:30:01.129Z,91.40
2022-12-31T06:32:32.693Z,91.40
2022-12-31T06:35:04.943Z,91.40
2022-12-31T06:37:36.095Z,91.40
2022-12-31T06:40:18.696Z,91.40
2022-12-31T06:42:56.004Z,91.40
2022-12-31T06:45:33.296Z,91.40
2022-12-31T06:48:04.271Z,91.40
2022-12-31T06:50:37.538Z,91.40
2022-12-31T06:53:08.878Z,91.40
2022-12-31T06:55:40.301Z,91.40
2022-12-31T06:58:16.609Z,91.40
2022-12-31T07:01:24.630Z,91.40
2022-12-31T07:04:33.569Z,91.40
2022-12-31T07:07:20.910Z,91.40
2022-12-31T07:10:30.020Z,91.30
2022-12-31T07:13:15.423Z,91.40
2022-12-31T07:16:07.206Z,91.40
2022-12-31T07:19:06.886Z,91.40
2022-12-31T07:24:26.771Z,91.40
2022-12-31T07:27:23.184Z,91.30
2022-12-31T07:30:07.004Z,91.40
2022-12-31T07:32:43.956Z,91.40
2022-12-31T07:35:47.018Z,91.40
2022-12-31T07:38:45.753Z,91.40
2022-12-31T07:41:30.591Z,91.50
2022-12-31T07:44:46.041Z,91.40
2022-12-31T07:47:22.966Z,91.40
2022-12-31T07:49:56.151Z,91.40
2022-12-31T07:52:27.436Z,91.40
2022-12-31T07:54:59.727Z,91.40
2022-12-31T07:57:36.375Z,91.50
2022-12-31T08:00:15.300Z,91.40
2022-12-31T08:03:02.305Z,91.40
2022-12-31T08:05:55.712Z,91.40
2022-12-31T08:08:46.226Z,91.40
2022-12-31T08:11:33.513Z,91.40
2022-12-31T08:14:04.960Z,91.40
2022-12-31T08:16:44.862Z,91.40
2022-12-31T08:22:27.318Z,91.40
2022-12-31T08:25:16.482Z,91.40
2022-12-31T08:28:28.009Z,91.40
2022-12-31T08:31:13.211Z,91.40
2022-12-31T08:34:36.155Z,91.40
2022-12-31T08:40:40.597Z,91.30
2022-12-31T08:43:28.441Z,91.40
2022-12-31T08:46:01.959Z,91.40
2022-12-31T08:48:44.002Z,91.40
2022-12-31T08:51:23.399Z,91.40
2022-12-31T08:53:56.487Z,91.40
2022-12-31T08:57:05.824Z,91.40
2022-12-31T08:59:41.982Z,91.40
2022-12-31T09:02:29.656Z,91.40
2022-12-31T09:05:27.512Z,91.40
2022-12-31T09:08:32.448Z,91.30
2022-12-31T09:11:23.120Z,91.30
2022-12-31T09:14:06.502Z,91.30
2022-12-31T09:16:55.813Z,91.30
2022-12-31T09:19:27.975Z,91.30
2022-12-31T09:21:59.332Z,91.20
2022-12-31T09:24:31.918Z,91.30
2022-12-31T09:27:08.475Z,91.20
2022-12-31T09:30:12.214Z,91.30
2022-12-31T09:36:17.043Z,91.40
2022-12-31T09:38:58.726Z,91.40
2022-12-31T09:41:42.315Z,91.50
2022-12-31T09:44:32.391Z,91.50
2022-12-31T09:47:22.508Z,91.50
2022-12-31T09:50:24.312Z,91.40
2022-12-31T09:53:03.352Z,91.40
2022-12-31T09:55:54.282Z,91.40
2022-12-31T09:58:40.559Z,91.30
2022-12-31T10:01:37.995Z,91.00
2022-12-31T10:04:09.125Z,91.10
2022-12-31T10:06:49.011Z,90.90
2022-12-31T10:09:25.666Z,91.40
2022-12-31T10:12:20.802Z,91.50
2022-12-31T10:15:25.593Z,91.50
2022-12-31T10:18:14.335Z,91.60
2022-12-31T10:21:06.433Z,91.60
2022-12-31T10:24:07.278Z,91.60
2022-12-31T10:27:20.070Z,91.60
2022-12-31T10:30:25.851Z,91.70
2022-12-31T10:33:27.683Z,91.70
2022-12-31T10:36:29.057Z,91.70
2022-12-31T10:39:25.661Z,91.70
2022-12-31T10:42:14.872Z,91.80
2022-12-31T10:45:00.713Z,91.70
2022-12-31T10:48:14.408Z,91.70
2022-12-31T10:51:22.225Z,91.80
2022-12-31T10:54:04.390Z,92.00
2022-12-31T10:57:08.710Z,91.80
2022-12-31T10:59:45.577Z,91.80
2022-12-31T11:02:53.194Z,91.80
2022-12-31T11:05:36.424Z,91.90
2022-12-31T11:08:33.409Z,91.90
2022-12-31T11:11:22.850Z,91.90
2022-12-31T11:14:33.505Z,91.90
2022-12-31T11:17:29.005Z,91.90
2022-12-31T11:20:30.532Z,92.00
2022-12-31T11:23:20.076Z,92.00
2022-12-31T11:26:13.620Z,92.00
2022-12-31T11:29:23.447Z,92.00
2022-12-31T11:32:11.973Z,92.00
2022-12-31T11:35:03.472Z,92.00
2022-12-31T11:38:04.231Z,92.10
2022-12-31T11:40:56.860Z,92.10
2022-12-31T11:46:57.066Z,92.10
2022-12-31T11:49:54.310Z,92.10
2022-12-31T11:52:53.841Z,92.10
2022-12-31T11:55:43.737Z,92.10
2022-12-31T11:58:18.657Z,92.20
2022-12-31T12:01:19.485Z,92.20
2022-12-31T12:03:51.379Z,92.20
2022-12-31T12:06:31.118Z,92.20
2022-12-31T12:09:24.495Z,92.20
2022-12-31T12:12:05.284Z,92.30
2022-12-31T12:14:48.783Z,92.30
2022-12-31T12:17:34.121Z,92.30
2022-12-31T12:20:21.379Z,92.30
2022-12-31T12:22:55.068Z,92.30
2022-12-31T12:25:39.410Z,92.30
2022-12-31T12:28:46.924Z,92.30
2022-12-31T12:31:24.431Z,92.30
2022-12-31T12:33:56.065Z,92.30
2022-12-31T12:36:27.350Z,92.30
2022-12-31T12:39:05.312Z,92.30
2022-12-31T12:41:37.405Z,92.30
2022-12-31T12:44:16.132Z,92.30
2022-12-31T12:47:07.835Z,92.30
2022-12-31T12:49:50.088Z,92.30
2022-12-31T12:52:30.287Z,92.30
2022-12-31T12:55:13.113Z,92.30
2022-12-31T12:58:27.933Z,92.30
2022-12-31T13:04:32.346Z,92.30
2022-12-31T13:06:49.477Z,92.30
2022-12-31T13:10:00.530Z,92.30
2022-12-31T13:13:05.236Z,92.30
2022-12-31T13:16:00.489Z,92.40
2022-12-31T13:18:38.919Z,92.40
2022-12-31T13:21:34.446Z,92.50
2022-12-31T13:24:20.439Z,92.40
2022-12-31T13:27:00.302Z,92.50
2022-12-31T13:29:35.691Z,92.50
2022-12-31T13:32:27.939Z,92.40
2022-12-31T13:35:18.467Z,92.50
2022-12-31T13:37:53.069Z,92.50
2022-12-31T13:40:27.532Z,92.50
2022-12-31T13:43:08.017Z,92.50
2022-12-31T13:45:45.337Z,92.50
2022-12-31T13:48:25.808Z,92.60
2022-12-31T13:54:08.729Z,92.60
2022-12-31T13:56:42.018Z,92.60
2022-12-31T13:59:15.916Z,92.60
2022-12-31T14:02:11.554Z,92.50
2022-12-31T14:04:53.669Z,92.60
2022-12-31T14:07:46.163Z,92.60
2022-12-31T14:10:18.861Z,92.60
2022-12-31T14:12:59.531Z,92.60
2022-12-31T14:15:49.775Z,92.60
2022-12-31T14:18:50.077Z,92.60
2022-12-31T14:24:55.243Z,92.60
2022-12-31T14:27:36.370Z,92.60
2022-12-31T14:30:12.529Z,92.60
2022-12-31T14:32:58.656Z,92.60
2022-12-31T14:35:44.592Z,92.60
2022-12-31T14:38:54.998Z,92.60
2022-12-31T14:41:55.260Z,92.60
2022-12-31T14:44:42.472Z,92.60
2022-12-31T14:47:37.423Z,92.60
2022-12-31T14:50:26.415Z,92.60
2022-12-31T14:56:28.729Z,92.70
2022-12-31T14:59:02.901Z,92.70
2022-12-31T15:01:33.507Z,92.70
2022-12-31T15:04:16.657Z,92.70
2022-12-31T15:07:19.768Z,92.70
2022-12-31T15:10:20.460Z,92.70
2022-12-31T15:13:15.324Z,92.70
2022-12-31T15:15:46.497Z,92.70
2022-12-31T15:18:35.336Z,92.70
2022-12-31T15:21:34.831Z,92.70
2022-12-31T15:24:19.426Z,92.70
2022-12-31T15:26:57.585Z,92.70
2022-12-31T15:29:36.879Z,93.10
2022-12-31T15:32:18.327Z,92.70
2022-12-31T15:34:49.433Z,92.70
2022-12-31T15:37:37.866Z,92.80
2022-12-31T15:40:21.417Z,92.80
2022-12-31T15:43:00.106Z,92.80
2022-12-31T15:45:42.926Z,92.80
2022-12-31T15:48:34.940Z,92.70
2022-12-31T15:51:07.028Z,92.80
2022-12-31T15:56:48.684Z,92.80
2022-12-31T15:59:22.476Z,92.80
2022-12-31T16:02:30.967Z,92.80
2022-12-31T16:05:28.486Z,92.80
2022-12-31T16:08:01.441Z,92.80
2022-12-31T16:10:35.212Z,92.80
2022-12-31T16:13:07.888Z,92.80
2022-12-31T16:15:39.642Z,92.80
2022-12-31T16:18:22.547Z,92.80
2022-12-31T16:20:55.723Z,92.80
2022-12-31T16:23:29.179Z,92.80
2022-12-31T16:26:03.949Z,92.80
2022-12-31T16:28:57.872Z,92.80
2022-12-31T16:31:31.544Z,92.80
2022-12-31T16:34:14.352Z,92.80
2022-12-31T16:36:56.087Z,92.80
2022-12-31T16:45:46.078Z,92.80
2022-12-31T16:48:22.941Z,92.80
2022-12-31T16:50:56.423Z,92.80
2022-12-31T16:53:35.184Z,92.80
2022-12-31T16:56:12.427Z,92.90
2022-12-31T16:58:48.207Z,92.80
2022-12-31T17:01:29.929Z,92.90
2022-12-31T17:04:10.861Z,92.80
2022-12-31T17:06:42.011Z,92.80
2022-12-31T17:09:22.148Z,92.80
2022-12-31T17:12:05.147Z,92.80
2022-12-31T17:14:50.472Z,92.80
2022-12-31T17:17:28.155Z,92.80
2022-12-31T17:20:04.935Z,92.80
2022-12-31T17:23:23.866Z,92.80
2022-12-31T17:26:02.021Z,92.80
2022-12-31T17:28:45.206Z,92.90
2022-12-31T17:31:44.677Z,92.80
2022-12-31T17:34:21.174Z,92.80
2022-12-31T17:37:03.899Z,92.80
2022-12-31T17:39:47.133Z,92.90
2022-12-31T17:42:25.772Z,92.80
2022-12-31T17:45:04.698Z,92.80
2022-12-31T17:47:42.038Z,92.80
2022-12-31T17:50:33.353Z,92.80
2022-12-31T17:56:02.397Z,92.80
2022-12-31T17:58:38.200Z,92.80
2022-12-31T18:01:11.135Z,92.80
2022-12-31T18:03:42.875Z,92.80
2022-12-31T18:06:16.779Z,92.90
2022-12-31T18:08:48.314Z,92.80
2022-12-31T18:14:10.476Z,92.90
2022-12-31T18:16:41.569Z,92.90
2022-12-31T18:19:54.443Z,92.90
2022-12-31T18:22:08.807Z,92.80
2022-12-31T18:27:24.351Z,92.90
2022-12-31T18:30:02.284Z,92.90
2022-12-31T18:32:36.274Z,92.90
2022-12-31T18:35:40.658Z,92.90
2022-12-31T18:38:17.193Z,92.80
2022-12-31T18:41:00.171Z,92.80
2022-12-31T18:43:31.008Z,92.80
2022-12-31T18:46:03.917Z,92.90
2022-12-31T18:48:34.911Z,92.90
2022-12-31T18:51:05.818Z,92.90
2022-12-31T18:53:36.783Z,92.90
2022-12-31T18:56:08.000Z,92.90
2022-12-31T18:58:38.876Z,92.90
2022-12-31T19:01:32.821Z,92.80
2022-12-31T19:04:05.961Z,92.90
2022-12-31T19:06:36.916Z,92.90
2022-12-31T19:09:23.665Z,92.90
2022-12-31T19:11:59.248Z,92.90
2022-12-31T19:14:30.426Z,92.80
2022-12-31T19:19:33.213Z,92.80
2022-12-31T19:22:04.235Z,92.90
2022-12-31T19:24:35.236Z,92.90
2022-12-31T19:27:06.286Z,93.20
2022-12-31T19:29:37.238Z,92.90
2022-12-31T19:32:08.317Z,92.90
2022-12-31T19:34:39.375Z,92.90
2022-12-31T19:37:17.576Z,92.90
2022-12-31T19:39:48.590Z,92.90
2022-12-31T19:42:19.696Z,92.90
2022-12-31T19:44:50.698Z,92.90
2022-12-31T19:47:21.641Z,92.90
2022-12-31T19:49:52.598Z,92.90
2022-12-31T19:52:23.589Z,92.90
2022-12-31T19:54:54.613Z,92.90
2022-12-31T19:57:25.706Z,92.90
2022-12-31T20:00:23.518Z,92.90
2022-12-31T20:02:54.637Z,92.90
2022-12-31T20:05:25.779Z,92.90
2022-12-31T20:07:56.786Z,92.90
2022-12-31T20:10:27.783Z,92.90
2022-12-31T20:12:58.649Z,92.90
2022-12-31T20:15:49.350Z,92.90
2022-12-31T20:18:40.653Z,92.90
2022-12-31T20:21:14.188Z,92.90
2022-12-31T20:23:45.463Z,92.90
2022-12-31T20:26:18.562Z,92.90
2022-12-31T20:28:50.282Z,92.90
2022-12-31T20:31:24.950Z,92.90
2022-12-31T20:34:16.873Z,92.90
2022-12-31T20:36:49.160Z,92.90
2022-12-31T20:39:20.104Z,92.90
2022-12-31T20:41:51.162Z,92.90
2022-12-31T20:44:22.339Z,92.90
2022-12-31T20:47:13.829Z,92.90
2022-12-31T20:50:10.202Z,92.90
2022-12-31T20:52:35.798Z,93.00
2022-12-31T20:55:07.203Z,93.00
2022-12-31T20:57:38.941Z,92.90
2022-12-31T21:00:10.491Z,92.90
2022-12-31T21:02:43.095Z,93.00
2022-12-31T21:05:15.699Z,92.90
2022-12-31T21:07:46.900Z,93.00
2022-12-31T21:10:18.613Z,92.90
2022-12-31T21:12:54.789Z,93.00
2022-12-31T21:15:45.450Z,93.00
2022-12-31T21:18:16.424Z,93.00
2022-12-31T21:20:54.605Z,93.30
2022-12-31T21:23:25.649Z,93.00
2022-12-31T21:25:56.516Z,92.90
2022-12-31T21:28:27.547Z,93.00
2022-12-31T21:31:02.932Z,92.90
2022-12-31T21:33:34.484Z,92.90
2022-12-31T21:36:05.769Z,92.90
2022-12-31T21:41:41.439Z,92.90
2022-12-31T21:44:12.567Z,92.90
2022-12-31T21:47:15.735Z,93.00
2022-12-31T21:49:34.619Z,92.90
2022-12-31T21:52:24.093Z,92.90
2022-12-31T21:55:14.079Z,93.00
2022-12-31T21:58:24.247Z,92.90
2022-12-31T22:00:56.290Z,93.00
2022-12-31T22:03:28.873Z,93.00
2022-12-31T22:06:15.113Z,92.90
2022-12-31T22:08:49.007Z,92.90
2022-12-31T22:11:22.282Z,93.00
2022-12-31T22:13:54.005Z,93.00
2022-12-31T22:16:48.909Z,93.00
2022-12-31T22:19:19.963Z,93.00
2022-12-31T22:21:51.001Z,93.00
2022-12-31T22:24:24.749Z,93.00
2022-12-31T22:26:59.011Z,93.00
2022-12-31T22:30:10.940Z,93.00
2022-12-31T22:32:41.915Z,93.00
2022-12-31T22:35:13.040Z,92.90
2022-12-31T22:38:11.405Z,92.90
2022-12-31T22:41:03.833Z,93.00
2022-12-31T22:43:36.241Z,93.00
2022-12-31T22:46:28.442Z,93.00
2022-12-31T22:49:01.509Z,93.00
2022-12-31T22:51:56.903Z,93.00
2022-12-31T22:54:50.339Z,93.00
2022-12-31T22:57:21.402Z,93.00
2022-12-31T22:59:53.549Z,93.00
2022-12-31T23:02:28.998Z,93.00
2022-12-31T23:05:14.935Z,93.00
2022-12-31T23:07:47.276Z,93.00
2022-12-31T23:10:36.513Z,93.00
2022-12-31T23:13:27.292Z,93.00
2022-12-31T23:16:16.058Z,93.10
2022-12-31T23:19:05.704Z,93.00
2022-12-31T23:21:55.831Z,93.00
2022-12-31T23:24:29.792Z,93.00
2022-12-31T23:27:00.387Z,93.00
2022-12-31T23:29:31.393Z,93.00
2022-12-31T23:32:23.471Z,93.00
2022-12-31T23:34:55.481Z,93.00
2022-12-31T23:37:26.408Z,93.00
2022-12-31T23:39:57.285Z,93.00
2022-12-31T23:42:28.294Z,93.00
2022-12-31T23:44:59.121Z,93.00
2022-12-31T23:50:13.812Z,93.40
2022-12-31T23:52:44.833Z,93.00
2022-12-31T23:55:15.938Z,93.00
2022-12-31T23:57:47.185Z,93.00
